createdAt,value
2019-02-24T00:00:43.263Z,101720.79
2019-02-24T00:03:11.149Z,101718.56
2019-02-24T00:05:39.212Z,101711.09
2019-02-24T00:08:07.032Z,101709.69
2019-02-24T00:10:35.251Z,101714.47
2019-02-24T00:13:05.053Z,101706.92
2019-02-24T00:15:32.892Z,101714.78
2019-02-24T00:18:01.091Z,101722.55
2019-02-24T00:20:28.892Z,101724.12
2019-02-24T00:22:56.663Z,101724.28
2019-02-24T00:25:24.488Z,101716.92
2019-02-24T00:28:11.795Z,101719.28
2019-02-24T00:30:39.761Z,101723.59
2019-02-24T00:33:07.646Z,101723.75
2019-02-24T00:35:35.439Z,101715.19
2019-02-24T00:38:03.270Z,101727.95
2019-02-24T00:40:36.418Z,101727.23
2019-02-24T00:43:04.313Z,101727.69
2019-02-24T00:45:32.088Z,101731.69
2019-02-24T00:48:00.285Z,101729.98
2019-02-24T00:50:28.377Z,101731.11
2019-02-24T00:52:56.223Z,101732.03
2019-02-24T00:55:24.095Z,101731.47
2019-02-24T00:57:51.942Z,101730.39
2019-02-24T01:00:19.709Z,101734.50
2019-02-24T01:02:47.557Z,101726.84
2019-02-24T01:05:15.492Z,101725.34
2019-02-24T01:07:43.510Z,101718.59
2019-02-24T01:10:11.432Z,101716.86
2019-02-24T01:12:39.225Z,101716.67
2019-02-24T01:15:07.847Z,101717.20
2019-02-24T01:17:35.676Z,101716.28
2019-02-24T01:20:04.236Z,101713.47
2019-02-24T01:22:32.047Z,101709.73
2019-02-24T01:25:00.272Z,101709.05
2019-02-24T01:27:29.764Z,101706.59
2019-02-24T01:29:57.889Z,101711.61
2019-02-24T01:32:25.685Z,101716.64
2019-02-24T01:34:53.484Z,101715.34
2019-02-24T01:37:21.333Z,101702.92
2019-02-24T01:39:49.190Z,101700.56
2019-02-24T01:42:17.015Z,101700.39
2019-02-24T01:44:44.820Z,101700.66
2019-02-24T01:47:12.677Z,101698.28
2019-02-24T01:49:40.480Z,101689.58
2019-02-24T01:52:08.813Z,101685.83
2019-02-24T01:54:36.652Z,101685.44
2019-02-24T01:57:04.524Z,101681.47
2019-02-24T01:59:32.344Z,101677.36
2019-02-24T02:02:00.201Z,101680.17
2019-02-24T02:04:27.988Z,101678.09
2019-02-24T02:06:55.764Z,101676.94
2019-02-24T02:09:23.555Z,101671.41
2019-02-24T02:11:51.355Z,101669.44
2019-02-24T02:14:19.140Z,101666.39
2019-02-24T02:16:46.950Z,101669.74
2019-02-24T02:19:14.780Z,101670.61
2019-02-24T02:22:02.164Z,101670.41
2019-02-24T02:24:29.975Z,101664.84
2019-02-24T02:27:17.231Z,101673.98
2019-02-24T02:29:45.034Z,101672.30
2019-02-24T02:32:12.830Z,101666.08
2019-02-24T02:34:40.656Z,101666.40
2019-02-24T02:37:08.511Z,101664.05
2019-02-24T02:39:36.381Z,101663.37
2019-02-24T02:42:04.269Z,101663.05
2019-02-24T02:44:32.089Z,101659.39
2019-02-24T02:46:59.901Z,101659.38
2019-02-24T02:49:27.713Z,101661.16
2019-02-24T02:51:55.514Z,101662.89
2019-02-24T02:54:23.331Z,101658.14
2019-02-24T02:56:51.110Z,101661.38
2019-02-24T02:59:18.978Z,101656.66
2019-02-24T03:01:46.748Z,101663.85
2019-02-24T03:04:14.614Z,101665.00
2019-02-24T03:07:01.961Z,101659.84
2019-02-24T03:09:29.770Z,101661.30
2019-02-24T03:11:57.557Z,101664.27
2019-02-24T03:14:25.365Z,101665.56
2019-02-24T03:16:53.123Z,101670.53
2019-02-24T03:19:20.937Z,101675.22
2019-02-24T03:21:53.885Z,101673.01
2019-02-24T03:24:21.729Z,101677.05
2019-02-24T03:26:49.507Z,101683.95
2019-02-24T03:29:17.305Z,101677.14
2019-02-24T03:31:45.185Z,101679.19
2019-02-24T03:34:12.974Z,101680.66
2019-02-24T03:36:40.765Z,101681.72
2019-02-24T03:39:08.598Z,101684.39
2019-02-24T03:41:55.796Z,101686.16
2019-02-24T03:44:23.640Z,101684.58
2019-02-24T03:46:51.477Z,101695.72
2019-02-24T03:49:19.268Z,101696.23
2019-02-24T03:51:47.109Z,101697.66
2019-02-24T03:54:34.338Z,101701.19
2019-02-24T03:57:02.423Z,101700.36
2019-02-24T03:59:30.192Z,101704.83
2019-02-24T04:01:57.969Z,101707.48
2019-02-24T04:04:25.853Z,101707.14
2019-02-24T04:06:53.631Z,101709.81
2019-02-24T04:09:21.456Z,101704.98
2019-02-24T04:11:54.348Z,101700.65
2019-02-24T04:14:22.118Z,101701.69
2019-02-24T04:16:49.970Z,101694.82
2019-02-24T04:19:17.796Z,101695.28
2019-02-24T04:21:45.677Z,101693.78
2019-02-24T04:24:13.522Z,101698.42
2019-02-24T04:26:41.307Z,101694.56
2019-02-24T04:29:09.139Z,101702.96
2019-02-24T04:32:07.574Z,101702.27
2019-02-24T04:34:35.439Z,101706.16
2019-02-24T04:37:03.220Z,101703.91
2019-02-24T04:39:31.102Z,101707.76
2019-02-24T04:41:58.887Z,101704.48
2019-02-24T04:44:26.733Z,101708.38
2019-02-24T04:46:54.559Z,101714.51
2019-02-24T04:49:41.809Z,101718.16
2019-02-24T04:52:09.638Z,101711.09
2019-02-24T04:54:37.441Z,101723.33
2019-02-24T04:57:05.317Z,101718.77
2019-02-24T04:59:35.280Z,101728.67
2019-02-24T05:02:02.784Z,101727.94
2019-02-24T05:04:30.605Z,101728.88
2019-02-24T05:06:58.406Z,101736.91
2019-02-24T05:09:26.229Z,101731.33
2019-02-24T05:11:53.983Z,101729.05
2019-02-24T05:14:21.808Z,101733.70
2019-02-24T05:16:49.569Z,101725.09
2019-02-24T05:19:17.755Z,101727.88
2019-02-24T05:21:45.550Z,101725.61
2019-02-24T05:24:13.347Z,101732.34
2019-02-24T05:26:41.220Z,101735.02
2019-02-24T05:29:08.988Z,101726.76
2019-02-24T05:31:56.309Z,101731.47
2019-02-24T05:34:24.111Z,101724.70
2019-02-24T05:36:52.800Z,101726.08
2019-02-24T05:39:20.650Z,101722.20
2019-02-24T05:41:53.530Z,101723.68
2019-02-24T05:44:21.323Z,101722.92
2019-02-24T05:46:49.139Z,101720.02
2019-02-24T05:49:36.368Z,101725.50
2019-02-24T05:52:04.251Z,101715.66
2019-02-24T05:54:32.062Z,101714.25
2019-02-24T05:56:59.880Z,101721.84
2019-02-24T05:59:27.676Z,101715.13
2019-02-24T06:01:55.515Z,101723.23
2019-02-24T06:04:23.309Z,101724.94
2019-02-24T06:06:51.652Z,101728.67
2019-02-24T06:09:19.770Z,101728.90
2019-02-24T06:11:58.069Z,101731.38
2019-02-24T06:14:26.276Z,101738.63
2019-02-24T06:16:54.508Z,101735.20
2019-02-24T06:19:22.758Z,101740.72
2019-02-24T06:22:10.485Z,101731.42
2019-02-24T06:24:38.800Z,101731.50
2019-02-24T06:27:06.941Z,101732.11
2019-02-24T06:29:34.786Z,101731.83
2019-02-24T06:32:02.918Z,101739.55
2019-02-24T06:34:31.246Z,101736.74
2019-02-24T06:36:59.423Z,101725.48
2019-02-24T06:39:27.592Z,101728.66
2019-02-24T06:41:55.879Z,101734.13
2019-02-24T06:44:24.235Z,101734.38
2019-02-24T06:47:11.744Z,101732.25
2019-02-24T06:49:59.510Z,101738.76
2019-02-24T06:52:28.183Z,101733.79
2019-02-24T06:54:56.766Z,101734.63
2019-02-24T06:57:24.988Z,101737.73
2019-02-24T06:59:53.197Z,101742.97
2019-02-24T07:02:24.321Z,101742.13
2019-02-24T07:04:58.506Z,101737.49
2019-02-24T07:07:26.796Z,101731.43
2019-02-24T07:10:14.387Z,101728.87
2019-02-24T07:12:42.669Z,101716.16
2019-02-24T07:15:10.821Z,101712.14
2019-02-24T07:17:39.342Z,101707.80
2019-02-24T07:20:07.658Z,101702.58
2019-02-24T07:22:38.939Z,101712.11
2019-02-24T07:25:07.365Z,101714.45
2019-02-24T07:27:36.019Z,101710.78
2019-02-24T07:30:05.114Z,101708.68
2019-02-24T07:32:33.413Z,101710.34
2019-02-24T07:35:01.383Z,101731.76
2019-02-24T07:37:29.295Z,101709.07
2019-02-24T07:39:57.480Z,101687.33
2019-02-24T07:42:25.753Z,101686.02
2019-02-24T07:44:54.010Z,101689.88
2019-02-24T07:47:22.327Z,101679.59
2019-02-24T07:49:50.607Z,101677.58
2019-02-24T07:52:19.183Z,101672.20
2019-02-24T07:54:47.786Z,101663.00
2019-02-24T07:57:16.043Z,101668.13
2019-02-24T07:59:44.215Z,101673.80
2019-02-24T08:02:12.515Z,101678.45
2019-02-24T08:04:40.993Z,101676.58
2019-02-24T08:07:09.265Z,101680.37
2019-02-24T08:09:37.749Z,101681.39
2019-02-24T08:12:06.063Z,101681.38
2019-02-24T08:14:34.437Z,101685.04
2019-02-24T08:17:02.930Z,101688.41
2019-02-24T08:19:31.097Z,101688.17
2019-02-24T08:21:59.472Z,101684.19
2019-02-24T08:24:29.187Z,101688.00
2019-02-24T08:26:57.470Z,101690.83
2019-02-24T08:29:28.422Z,101691.58
2019-02-24T08:31:56.745Z,101694.44
2019-02-24T08:34:24.925Z,101690.69
2019-02-24T08:36:53.138Z,101690.97
2019-02-24T08:39:21.340Z,101684.80
2019-02-24T08:41:49.739Z,101663.00
2019-02-24T08:44:18.232Z,101639.08
2019-02-24T08:46:46.497Z,101652.55
2019-02-24T08:49:14.704Z,101664.56
2019-02-24T08:51:42.964Z,101666.19
2019-02-24T08:54:11.357Z,101681.58
2019-02-24T08:56:39.791Z,101684.30
2019-02-24T08:59:08.150Z,101690.80
2019-02-24T09:01:36.673Z,101696.49
2019-02-24T09:04:05.195Z,101703.77
2019-02-24T09:06:33.017Z,101704.71
2019-02-24T09:09:01.113Z,101711.16
2019-02-24T09:11:29.300Z,101716.19
2019-02-24T09:13:57.447Z,101716.92
2019-02-24T09:16:25.717Z,101719.09
2019-02-24T09:18:54.036Z,101718.53
2019-02-24T09:21:22.425Z,101706.41
2019-02-24T09:23:50.770Z,101708.77
2019-02-24T09:26:19.230Z,101704.14
2019-02-24T09:28:48.359Z,101699.66
2019-02-24T09:31:16.900Z,101703.33
2019-02-24T09:33:45.257Z,101705.82
2019-02-24T09:36:13.823Z,101700.94
2019-02-24T09:38:42.266Z,101701.94
2019-02-24T09:41:10.485Z,101699.20
2019-02-24T09:43:38.521Z,101694.19
2019-02-24T09:46:06.572Z,101696.31
2019-02-24T09:48:34.669Z,101695.62
2019-02-24T09:51:02.921Z,101700.83
2019-02-24T09:53:30.935Z,101694.73
2019-02-24T09:55:59.105Z,101694.35
2019-02-24T09:58:27.359Z,101688.88
2019-02-24T10:00:55.548Z,101688.56
2019-02-24T10:03:23.704Z,101681.45
2019-02-24T10:05:51.527Z,101675.50
2019-02-24T10:08:19.371Z,101667.33
2019-02-24T10:10:47.169Z,101670.41
2019-02-24T10:13:15.003Z,101670.61
2019-02-24T10:15:42.813Z,101668.00
2019-02-24T10:18:10.655Z,101674.33
2019-02-24T10:20:38.472Z,101672.94
2019-02-24T10:23:06.337Z,101671.08
2019-02-24T10:25:34.118Z,101673.40
2019-02-24T10:28:01.943Z,101669.64
2019-02-24T10:30:29.916Z,101666.88
2019-02-24T10:32:57.739Z,101669.25
2019-02-24T10:35:25.589Z,101662.03
2019-02-24T10:37:53.419Z,101664.76
2019-02-24T10:40:26.460Z,101661.29
2019-02-24T10:42:54.258Z,101658.97
2019-02-24T10:45:22.130Z,101660.28
2019-02-24T10:47:49.893Z,101668.34
2019-02-24T10:50:17.836Z,101665.56
2019-02-24T10:52:45.770Z,101663.66
2019-02-24T10:55:13.587Z,101665.13
2019-02-24T10:57:41.673Z,101665.67
2019-02-24T11:00:11.695Z,101668.38
2019-02-24T11:02:39.548Z,101656.89
2019-02-24T11:05:07.549Z,101652.58
2019-02-24T11:07:35.357Z,101651.62
2019-02-24T11:10:04.708Z,101635.67
2019-02-24T11:12:33.183Z,101621.16
2019-02-24T11:15:01.407Z,101604.91
2019-02-24T11:17:29.621Z,101598.59
2019-02-24T11:19:58.099Z,101596.36
2019-02-24T11:22:26.310Z,101591.41
2019-02-24T11:24:54.533Z,101586.77
2019-02-24T11:27:22.636Z,101582.70
2019-02-24T11:29:50.908Z,101569.38
2019-02-24T11:32:19.281Z,101563.84
2019-02-24T11:34:47.535Z,101565.98
2019-02-24T11:37:15.765Z,101564.70
2019-02-24T11:39:44.121Z,101550.58
2019-02-24T11:42:12.422Z,101551.98
2019-02-24T11:44:40.623Z,101548.64
2019-02-24T11:47:08.706Z,101543.95
2019-02-24T11:49:45.253Z,101539.03
2019-02-24T11:52:13.530Z,101532.97
2019-02-24T11:54:41.781Z,101531.30
2019-02-24T11:57:09.991Z,101542.30
2019-02-24T11:59:53.307Z,101538.02
2019-02-24T12:02:34.174Z,101538.30
2019-02-24T12:04:56.289Z,101539.78
2019-02-24T12:07:26.511Z,101545.63
2019-02-24T12:09:54.724Z,101538.76
2019-02-24T12:12:23.044Z,101530.61
2019-02-24T12:14:50.847Z,101530.17
2019-02-24T12:17:18.670Z,101526.59
2019-02-24T12:19:46.506Z,101524.33
2019-02-24T12:22:14.342Z,101518.52
2019-02-24T12:24:42.121Z,101514.70
2019-02-24T12:27:09.938Z,101507.32
2019-02-24T12:29:37.763Z,101507.02
2019-02-24T12:32:06.217Z,101507.92
2019-02-24T12:34:34.437Z,101501.13
2019-02-24T12:37:02.187Z,101497.57
2019-02-24T12:39:30.069Z,101492.78
2019-02-24T12:41:57.899Z,101491.91
2019-02-24T12:44:25.696Z,101489.81
2019-02-24T12:46:53.507Z,101486.58
2019-02-24T12:49:21.767Z,101478.68
2019-02-24T12:51:54.776Z,101476.11
2019-02-24T12:54:25.472Z,101466.27
2019-02-24T12:56:53.302Z,101458.41
2019-02-24T12:59:21.173Z,101442.27
2019-02-24T13:01:50.886Z,101447.75
2019-02-24T13:04:18.695Z,101433.77
2019-02-24T13:06:46.519Z,101440.25
2019-02-24T13:09:14.339Z,101456.61
2019-02-24T13:12:01.652Z,101463.55
2019-02-24T13:14:29.480Z,101468.13
2019-02-24T13:16:57.413Z,101466.73
2019-02-24T13:19:25.226Z,101461.45
2019-02-24T13:21:53.035Z,101462.44
2019-02-24T13:24:23.340Z,101462.23
2019-02-24T13:26:51.240Z,101470.16
2019-02-24T13:29:19.048Z,101477.86
2019-02-24T13:31:47.019Z,101485.99
2019-02-24T13:34:15.664Z,101484.05
2019-02-24T13:36:43.633Z,101476.03
2019-02-24T13:39:11.566Z,101476.12
2019-02-24T13:41:39.978Z,101472.59
2019-02-24T13:44:07.813Z,101473.52
2019-02-24T13:46:41.838Z,101475.51
2019-02-24T13:49:11.887Z,101468.77
2019-02-24T13:51:39.936Z,101469.97
2019-02-24T13:54:07.843Z,101462.49
2019-02-24T13:56:35.679Z,101451.33
2019-02-24T13:59:03.533Z,101443.94
2019-02-24T14:01:31.340Z,101451.08
2019-02-24T14:03:59.173Z,101453.34
2019-02-24T14:06:27.059Z,101446.84
2019-02-24T14:09:01.962Z,101442.55
2019-02-24T14:11:30.355Z,101444.03
2019-02-24T14:13:58.133Z,101438.36
2019-02-24T14:16:25.976Z,101436.53
2019-02-24T14:18:53.804Z,101430.17
2019-02-24T14:21:21.722Z,101429.98
2019-02-24T14:23:49.535Z,101430.98
2019-02-24T14:26:17.360Z,101428.27
2019-02-24T14:28:45.272Z,101425.49
2019-02-24T14:31:13.309Z,101414.55
2019-02-24T14:33:41.159Z,101418.23
2019-02-24T14:36:08.969Z,101411.55
2019-02-24T14:38:36.802Z,101416.84
2019-02-24T14:41:04.709Z,101415.34
2019-02-24T14:43:32.567Z,101421.72
2019-02-24T14:46:00.500Z,101418.38
2019-02-24T14:48:28.317Z,101424.83
2019-02-24T14:51:01.647Z,101423.96
2019-02-24T14:53:30.082Z,101425.20
2019-02-24T14:56:04.446Z,101423.18
2019-02-24T14:58:35.544Z,101425.17
2019-02-24T15:01:12.934Z,101428.59
2019-02-24T15:03:40.730Z,101431.17
2019-02-24T15:06:12.348Z,101432.98
2019-02-24T15:08:42.429Z,101438.45
2019-02-24T15:11:16.851Z,101438.25
2019-02-24T15:13:51.326Z,101437.47
2019-02-24T15:16:25.096Z,101441.97
2019-02-24T15:18:53.575Z,101443.21
2019-02-24T15:21:21.421Z,101438.69
2019-02-24T15:23:49.182Z,101438.84
2019-02-24T15:26:16.979Z,101438.88
2019-02-24T15:28:44.743Z,101439.27
2019-02-24T15:31:12.559Z,101438.20
2019-02-24T15:33:40.355Z,101431.23
2019-02-24T15:36:08.183Z,101440.68
2019-02-24T15:38:36.030Z,101445.58
2019-02-24T15:41:03.883Z,101457.98
2019-02-24T15:43:31.634Z,101462.61
2019-02-24T15:45:59.426Z,101467.18
2019-02-24T15:48:27.227Z,101476.36
2019-02-24T15:51:00.200Z,101481.45
2019-02-24T15:53:28.029Z,101480.11
2019-02-24T15:55:55.867Z,101477.87
2019-02-24T15:58:23.670Z,101476.95
2019-02-24T16:00:56.602Z,101477.88
2019-02-24T16:03:24.392Z,101478.02
2019-02-24T16:05:52.275Z,101480.53
2019-02-24T16:08:25.575Z,101486.67
2019-02-24T16:10:53.484Z,101485.14
2019-02-24T16:13:21.322Z,101487.62
2019-02-24T16:15:49.154Z,101494.68
2019-02-24T16:18:17.029Z,101487.47
2019-02-24T16:20:44.855Z,101486.98
2019-02-24T16:23:12.650Z,101487.80
2019-02-24T16:25:40.437Z,101484.81
2019-02-24T16:28:08.286Z,101490.31
2019-02-24T16:30:41.447Z,101485.88
2019-02-24T16:33:10.799Z,101486.30
2019-02-24T16:35:38.950Z,101487.72
2019-02-24T16:38:06.781Z,101484.80
2019-02-24T16:40:34.630Z,101492.30
2019-02-24T16:43:02.445Z,101492.00
2019-02-24T16:45:30.301Z,101496.31
2019-02-24T16:47:58.087Z,101504.45
2019-02-24T16:50:25.890Z,101507.86
2019-02-24T16:52:53.714Z,101514.13
2019-02-24T16:55:21.603Z,101519.22
2019-02-24T16:57:49.722Z,101522.22
2019-02-24T17:00:36.478Z,101530.49
2019-02-24T17:03:04.266Z,101534.91
2019-02-24T17:05:32.114Z,101529.72
2019-02-24T17:07:59.955Z,101530.73
2019-02-24T17:10:31.728Z,101530.54
2019-02-24T17:13:01.619Z,101533.67
2019-02-24T17:15:29.307Z,101533.72
2019-02-24T17:17:57.115Z,101545.30
2019-02-24T17:20:24.937Z,101434.87
2019-02-24T17:22:52.800Z,101548.05
2019-02-24T17:25:23.684Z,101552.66
2019-02-24T17:27:51.831Z,101552.05
2019-02-24T17:30:19.636Z,101550.98
2019-02-24T17:32:47.478Z,101551.12
2019-02-24T17:35:15.287Z,101556.27
2019-02-24T17:37:43.099Z,101562.03
2019-02-24T17:40:11.962Z,101557.99
2019-02-24T17:42:39.838Z,101569.94
2019-02-24T17:45:09.957Z,101575.87
2019-02-24T17:47:37.934Z,101577.81
2019-02-24T17:50:07.471Z,101577.64
2019-02-24T17:52:35.310Z,101576.73
2019-02-24T17:55:04.625Z,101576.93
2019-02-24T17:57:32.421Z,101534.14
2019-02-24T18:00:00.347Z,101581.64
2019-02-24T18:02:28.233Z,101584.27
2019-02-24T18:04:56.054Z,101586.43
2019-02-24T18:07:23.972Z,101581.32
2019-02-24T18:09:52.332Z,101578.23
2019-02-24T18:12:20.236Z,101570.94
2019-02-24T18:14:48.138Z,101570.52
2019-02-24T18:17:21.710Z,101571.59
2019-02-24T18:19:49.822Z,101571.95
2019-02-24T18:22:20.655Z,101571.30
2019-02-24T18:24:48.459Z,101572.42
2019-02-24T18:27:16.347Z,101567.12
2019-02-24T18:29:47.197Z,101571.17
2019-02-24T18:32:20.727Z,101569.17
2019-02-24T18:34:49.538Z,101568.14
2019-02-24T18:37:17.411Z,101564.39
2019-02-24T18:39:45.259Z,101565.23
2019-02-24T18:42:13.590Z,101565.27
2019-02-24T18:44:41.511Z,101568.07
2019-02-24T18:47:09.431Z,101545.32
2019-02-24T18:49:40.617Z,101566.46
2019-02-24T18:52:09.167Z,101571.50
2019-02-24T18:54:39.204Z,101577.84
2019-02-24T18:57:08.503Z,101580.50
2019-02-24T18:59:40.475Z,101584.24
2019-02-24T19:02:10.663Z,101596.95
2019-02-24T19:04:38.569Z,101593.63
2019-02-24T19:07:17.151Z,101584.14
2019-02-24T19:09:44.971Z,101589.95
2019-02-24T19:12:18.520Z,101588.55
2019-02-24T19:14:46.435Z,101585.94
2019-02-24T19:17:16.804Z,101592.22
2019-02-24T19:19:51.623Z,101607.80
2019-02-24T19:22:25.556Z,101600.31
2019-02-24T19:24:57.670Z,101599.76
2019-02-24T19:27:31.056Z,101598.63
2019-02-24T19:30:08.962Z,101601.92
2019-02-24T19:32:37.103Z,101612.23
2019-02-24T19:35:06.909Z,101609.45
2019-02-24T19:37:34.796Z,101608.41
2019-02-24T19:40:03.182Z,101605.83
2019-02-24T19:42:31.095Z,101607.19
2019-02-24T19:44:58.987Z,101611.43
2019-02-24T19:47:26.856Z,101618.05
2019-02-24T19:50:07.167Z,101616.87
2019-02-24T19:52:35.042Z,101616.91
2019-02-24T19:55:03.049Z,101618.70
2019-02-24T19:57:30.961Z,101615.56
2019-02-24T19:59:58.862Z,101623.47
2019-02-24T20:02:26.670Z,101626.68
2019-02-24T20:04:54.508Z,101630.78
2019-02-24T20:07:42.280Z,101632.11
2019-02-24T20:10:12.508Z,101637.02
2019-02-24T20:12:40.380Z,101638.33
2019-02-24T20:15:11.169Z,101638.56
2019-02-24T20:17:39.771Z,101645.95
2019-02-24T20:20:09.736Z,101641.91
2019-02-24T20:22:38.482Z,101650.77
2019-02-24T20:25:07.952Z,101646.28
2019-02-24T20:27:36.715Z,101642.57
2019-02-24T20:30:12.606Z,101650.55
2019-02-24T20:32:41.082Z,101654.16
2019-02-24T20:35:10.214Z,101656.18
2019-02-24T20:37:38.656Z,101661.19
2019-02-24T20:40:07.429Z,101670.79
2019-02-24T20:42:35.878Z,101668.24
2019-02-24T20:45:05.280Z,101665.17
2019-02-24T20:47:33.925Z,101668.66
2019-02-24T20:50:11.552Z,101672.39
2019-02-24T20:52:40.059Z,101667.74
2019-02-24T20:55:09.557Z,101673.49
2019-02-24T20:57:59.316Z,101684.28
2019-02-24T21:00:32.099Z,101684.51
2019-02-24T21:03:01.371Z,101683.20
2019-02-24T21:05:30.041Z,101686.57
2019-02-24T21:07:57.875Z,101680.61
2019-02-24T21:10:25.665Z,101683.55
2019-02-24T21:12:53.506Z,101677.84
2019-02-24T21:15:21.656Z,101680.13
2019-02-24T21:17:49.489Z,101671.47
2019-02-24T21:20:25.095Z,101675.74
2019-02-24T21:22:55.926Z,101678.63
2019-02-24T21:25:24.311Z,101682.03
2019-02-24T21:27:52.126Z,101681.55
2019-02-24T21:30:20.530Z,101679.66
2019-02-24T21:32:48.426Z,101671.81
2019-02-24T21:35:17.381Z,101684.20
2019-02-24T21:37:45.598Z,101684.96
2019-02-24T21:40:13.497Z,101690.47
2019-02-24T21:42:41.335Z,101693.83
2019-02-24T21:45:12.788Z,101691.60
2019-02-24T21:47:40.709Z,101690.91
2019-02-24T21:50:10.166Z,101681.80
2019-02-24T21:52:38.374Z,101683.84
2019-02-24T21:55:06.940Z,101687.57
2019-02-24T21:57:34.769Z,101675.15
2019-02-24T22:00:02.765Z,101672.66
2019-02-24T22:02:31.668Z,101640.65
2019-02-24T22:04:59.531Z,101669.68
2019-02-24T22:07:27.336Z,101664.22
2019-02-24T22:09:55.171Z,101665.90
2019-02-24T22:12:22.986Z,101666.27
2019-02-24T22:14:50.784Z,101668.25
2019-02-24T22:17:18.651Z,101666.02
2019-02-24T22:19:46.738Z,101660.92
2019-02-24T22:22:14.673Z,101662.54
2019-02-24T22:24:42.501Z,101662.12
2019-02-24T22:27:10.281Z,101657.31
2019-02-24T22:29:38.253Z,101667.30
2019-02-24T22:32:06.024Z,101669.08
2019-02-24T22:34:35.805Z,101665.78
2019-02-24T22:37:03.621Z,101667.02
2019-02-24T22:39:31.529Z,101660.59
2019-02-24T22:41:59.320Z,101660.72
2019-02-24T22:44:27.388Z,101663.84
2019-02-24T22:46:55.183Z,101665.67
2019-02-24T22:49:23.071Z,101667.89
2019-02-24T22:51:51.022Z,101673.63
2019-02-24T22:54:18.957Z,101676.61
2019-02-24T22:56:46.765Z,101680.21
2019-02-24T22:59:14.614Z,101670.75
2019-02-24T23:01:43.301Z,101665.25
2019-02-24T23:04:12.475Z,101667.07
2019-02-24T23:06:40.363Z,101663.90
2019-02-24T23:09:13.988Z,101665.99
2019-02-24T23:11:56.820Z,101669.97
2019-02-24T23:14:24.583Z,101676.83
2019-02-24T23:16:52.422Z,101670.35
2019-02-24T23:19:20.209Z,101671.14
2019-02-24T23:21:48.159Z,101680.92
2019-02-24T23:24:15.971Z,101673.77
2019-02-24T23:26:43.776Z,101670.44
2019-02-24T23:29:11.595Z,101663.41
2019-02-24T23:31:39.510Z,101665.59
2019-02-24T23:34:07.347Z,101674.59
2019-02-24T23:36:35.140Z,101674.18
2019-02-24T23:39:05.406Z,101677.97
2019-02-24T23:41:33.283Z,101677.61
2019-02-24T23:44:01.091Z,101677.98
2019-02-24T23:46:28.920Z,101692.19
2019-02-24T23:48:56.790Z,101697.30
2019-02-24T23:51:24.715Z,101698.63
2019-02-24T23:53:52.558Z,101701.73
2019-02-24T23:56:20.360Z,101697.72
2019-02-24T23:58:48.250Z,101694.36
